createdAt,value
2023-02-23T00:00:45.718Z,26.13
2023-02-23T00:03:31.724Z,24.25
2023-02-23T00:06:18.853Z,24.60
2023-02-23T00:09:24.444Z,19.08
2023-02-23T00:12:10.615Z,20.92
2023-02-23T00:14:56.405Z,18.38
2023-02-23T00:17:42.366Z,24.98
2023-02-23T00:20:28.219Z,19.67
2023-02-23T00:23:15.161Z,16.13
2023-02-23T00:26:05.213Z,20.70
2023-02-23T00:28:53.685Z,16.30
2023-02-23T00:31:40.808Z,17.40
2023-02-23T00:34:26.611Z,19.60
2023-02-23T00:37:12.566Z,18.88
2023-02-23T00:39:58.445Z,17.88
2023-02-23T00:42:47.911Z,23.77
2023-02-23T00:45:34.039Z,19.27
2023-02-23T00:48:19.822Z,20.15
2023-02-23T00:51:06.000Z,18.80
2023-02-23T00:53:55.160Z,20.85
2023-02-23T00:56:41.803Z,17.27
2023-02-23T00:59:29.679Z,15.88
2023-02-23T01:02:16.024Z,16.55
2023-02-23T01:05:02.163Z,22.48
2023-02-23T01:07:49.152Z,19.45
2023-02-23T01:10:42.921Z,19.25
2023-02-23T01:13:30.754Z,18.73
2023-02-23T01:16:18.318Z,19.50
2023-02-23T01:19:05.666Z,25.20
2023-02-23T01:21:51.896Z,21.23
2023-02-23T01:24:38.775Z,18.42
2023-02-23T01:27:25.869Z,16.50
2023-02-23T01:30:14.929Z,15.68
2023-02-23T01:33:02.964Z,17.75
2023-02-23T01:36:00.143Z,16.42
2023-02-23T01:38:45.773Z,20.58
2023-02-23T01:41:33.185Z,16.20
2023-02-23T01:44:19.082Z,19.20
2023-02-23T01:47:05.039Z,16.38
2023-02-23T01:49:51.083Z,19.50
2023-02-23T01:52:37.727Z,16.73
2023-02-23T01:55:24.705Z,18.58
2023-02-23T01:58:15.597Z,16.92
2023-02-23T02:01:02.998Z,18.90
2023-02-23T02:03:53.941Z,15.93
2023-02-23T02:06:40.226Z,16.63
2023-02-23T02:09:28.552Z,17.45
2023-02-23T02:12:15.073Z,17.33
2023-02-23T02:15:05.038Z,18.80
2023-02-23T02:17:59.101Z,18.15
2023-02-23T02:20:58.621Z,15.18
2023-02-23T02:24:15.298Z,15.00
2023-02-23T02:27:21.517Z,16.63
2023-02-23T02:30:43.691Z,15.52
2023-02-23T02:33:34.637Z,16.02
2023-02-23T02:36:44.694Z,16.88
2023-02-23T02:39:54.112Z,15.85
2023-02-23T02:42:51.315Z,16.67
2023-02-23T02:45:50.362Z,16.75
2023-02-23T02:48:50.406Z,16.38
2023-02-23T02:51:45.191Z,18.42
2023-02-23T02:55:00.593Z,18.50
2023-02-23T02:57:47.107Z,16.05
2023-02-23T03:01:00.821Z,14.75
2023-02-23T03:04:05.995Z,17.77
2023-02-23T03:07:24.987Z,15.20
2023-02-23T03:10:52.630Z,14.55
2023-02-23T03:14:25.868Z,15.77
2023-02-23T03:17:50.748Z,17.30
2023-02-23T03:21:24.060Z,15.02
2023-02-23T03:24:38.996Z,15.98
2023-02-23T03:28:08.396Z,15.68
2023-02-23T03:31:35.349Z,14.40
2023-02-23T03:34:47.788Z,12.60
2023-02-23T03:38:07.049Z,14.95
2023-02-23T03:41:13.076Z,17.80
2023-02-23T03:44:22.874Z,18.25
2023-02-23T03:47:29.574Z,13.60
2023-02-23T03:50:45.967Z,15.95
2023-02-23T03:54:40.221Z,16.55
2023-02-23T03:57:46.901Z,17.15
2023-02-23T04:00:54.887Z,20.13
2023-02-23T04:04:01.140Z,15.32
2023-02-23T04:07:06.170Z,14.65
2023-02-23T04:10:10.765Z,15.95
2023-02-23T04:13:17.425Z,15.27
2023-02-23T04:16:06.009Z,15.75
2023-02-23T04:18:51.861Z,13.90
2023-02-23T04:21:38.158Z,17.52
2023-02-23T04:24:23.855Z,14.10
2023-02-23T04:27:09.718Z,16.05
2023-02-23T04:29:55.537Z,15.25
2023-02-23T04:32:41.322Z,13.77
2023-02-23T04:35:29.952Z,15.75
2023-02-23T04:38:16.168Z,13.98
2023-02-23T04:41:02.112Z,16.27
2023-02-23T04:43:48.006Z,17.83
2023-02-23T04:46:33.744Z,14.40
2023-02-23T04:49:19.571Z,15.35
2023-02-23T04:52:05.707Z,14.70
2023-02-23T04:54:51.735Z,16.90
2023-02-23T04:57:37.669Z,18.20
2023-02-23T05:00:23.732Z,18.27
2023-02-23T05:03:10.837Z,16.15
2023-02-23T05:05:56.919Z,14.75
2023-02-23T05:08:43.080Z,16.27
2023-02-23T05:11:29.988Z,17.98
2023-02-23T05:14:15.992Z,17.88
2023-02-23T05:17:02.957Z,17.50
2023-02-23T05:19:48.922Z,18.75
2023-02-23T05:22:34.858Z,16.67
2023-02-23T05:25:20.807Z,16.95
2023-02-23T05:28:06.682Z,17.08
2023-02-23T05:30:52.699Z,17.60
2023-02-23T05:33:45.857Z,18.92
2023-02-23T05:36:31.856Z,20.00
2023-02-23T05:39:17.604Z,20.60
2023-02-23T05:42:03.640Z,19.45
2023-02-23T05:44:49.358Z,19.95
2023-02-23T05:47:38.836Z,17.35
2023-02-23T05:50:25.985Z,19.90
2023-02-23T05:53:11.954Z,18.65
2023-02-23T05:55:58.157Z,16.25
2023-02-23T05:58:44.572Z,23.90
2023-02-23T06:01:31.012Z,21.45
2023-02-23T06:04:17.456Z,19.65
2023-02-23T06:07:03.921Z,20.80
2023-02-23T06:09:50.735Z,17.75
2023-02-23T06:12:36.603Z,19.25
2023-02-23T06:15:22.576Z,20.05
2023-02-23T06:18:09.151Z,19.15
2023-02-23T06:20:55.650Z,18.75
2023-02-23T06:23:41.803Z,25.10
2023-02-23T06:26:27.785Z,20.73
2023-02-23T06:29:14.754Z,21.20
2023-02-23T06:32:01.077Z,23.20
2023-02-23T06:34:47.378Z,24.92
2023-02-23T06:37:34.277Z,21.83
2023-02-23T06:40:20.976Z,21.50
2023-02-23T06:43:06.782Z,22.85
2023-02-23T06:45:52.657Z,22.42
2023-02-23T06:48:38.482Z,30.10
2023-02-23T06:51:24.464Z,27.52
2023-02-23T06:54:10.381Z,24.33
2023-02-23T06:56:56.775Z,26.02
2023-02-23T06:59:42.782Z,22.63
2023-02-23T07:02:28.587Z,32.35
2023-02-23T07:05:14.570Z,29.38
2023-02-23T07:08:00.503Z,25.92
2023-02-23T07:10:46.645Z,34.95
2023-02-23T07:13:32.867Z,31.77
2023-02-23T07:16:18.734Z,37.78
2023-02-23T07:19:04.776Z,44.05
2023-02-23T07:21:50.903Z,52.08
2023-02-23T07:24:36.663Z,49.38
2023-02-23T07:27:23.040Z,35.75
2023-02-23T07:30:09.875Z,37.83
2023-02-23T07:32:55.771Z,38.47
2023-02-23T07:35:43.132Z,36.22
2023-02-23T07:38:29.160Z,36.03
2023-02-23T07:41:15.115Z,34.15
2023-02-23T07:44:01.080Z,37.45
2023-02-23T07:46:46.969Z,38.42
2023-02-23T07:49:33.171Z,39.65
2023-02-23T07:52:19.265Z,39.85
2023-02-23T07:55:05.871Z,47.78
2023-02-23T07:57:51.899Z,39.83
2023-02-23T08:00:40.094Z,48.83
2023-02-23T08:03:26.486Z,45.97
2023-02-23T08:06:12.514Z,44.30
2023-02-23T08:09:01.974Z,51.55
2023-02-23T08:11:47.882Z,64.97
2023-02-23T08:14:33.716Z,64.30
2023-02-23T08:17:19.912Z,51.50
2023-02-23T08:20:07.096Z,59.20
2023-02-23T08:22:57.149Z,81.57
2023-02-23T08:25:42.824Z,52.10
2023-02-23T08:28:29.226Z,48.90
2023-02-23T08:31:16.422Z,47.95
2023-02-23T08:34:02.770Z,48.03
2023-02-23T08:36:49.521Z,52.00
2023-02-23T08:39:35.360Z,46.15
2023-02-23T08:42:21.513Z,46.28
2023-02-23T08:45:08.712Z,51.90
2023-02-23T08:47:55.804Z,43.38
2023-02-23T08:50:41.697Z,51.58
2023-02-23T08:53:29.781Z,58.90
2023-02-23T08:56:15.661Z,67.93
2023-02-23T08:59:01.614Z,69.13
2023-02-23T09:01:47.555Z,73.72
2023-02-23T09:04:35.232Z,67.97
2023-02-23T09:07:23.248Z,82.18
2023-02-23T09:10:11.119Z,89.28
2023-02-23T09:12:56.827Z,85.32
2023-02-23T09:15:43.616Z,71.40
2023-02-23T09:18:30.753Z,71.47
2023-02-23T09:21:21.103Z,67.10
2023-02-23T09:24:07.400Z,64.53
2023-02-23T09:26:53.826Z,51.10
2023-02-23T09:29:43.910Z,50.85
2023-02-23T09:32:30.184Z,39.50
2023-02-23T09:35:17.989Z,38.10
2023-02-23T09:38:05.707Z,40.13
2023-02-23T09:40:55.412Z,36.70
2023-02-23T09:43:45.346Z,36.63
2023-02-23T10:21:21.111Z,25.63
2023-02-23T10:24:30.284Z,38.42
2023-02-23T10:27:18.887Z,39.63
2023-02-23T10:30:14.800Z,34.53
2023-02-23T10:33:03.561Z,33.72
2023-02-23T10:35:54.024Z,36.42
2023-02-23T10:38:46.987Z,34.38
2023-02-23T10:41:34.547Z,41.60
2023-02-23T10:44:24.356Z,38.45
2023-02-23T10:47:31.556Z,35.72
2023-02-23T10:50:18.156Z,30.60
2023-02-23T10:53:17.539Z,26.55
2023-02-23T10:56:13.905Z,33.50
2023-02-23T10:59:00.242Z,33.97
2023-02-23T11:02:01.007Z,29.10
2023-02-23T11:04:53.956Z,28.75
2023-02-23T11:07:40.214Z,27.70
2023-02-23T11:10:28.155Z,26.98
2023-02-23T11:13:26.434Z,28.17
2023-02-23T11:16:17.731Z,31.67
2023-02-23T11:19:05.418Z,30.23
2023-02-23T11:21:52.599Z,34.90
2023-02-23T11:24:41.280Z,25.75
2023-02-23T11:27:27.773Z,29.67
2023-02-23T11:30:14.006Z,27.92
2023-02-23T11:33:10.692Z,26.58
2023-02-23T11:36:01.196Z,32.45
2023-02-23T11:38:47.920Z,32.25
2023-02-23T11:41:37.181Z,31.40
2023-02-23T11:44:23.930Z,27.65
2023-02-23T11:47:27.933Z,30.23
2023-02-23T11:50:39.914Z,31.55
2023-02-23T11:53:32.781Z,34.37
2023-02-23T11:56:24.009Z,25.80
2023-02-23T11:59:18.383Z,26.08
2023-02-23T12:02:15.791Z,25.67
2023-02-23T12:05:17.158Z,27.92
2023-02-23T12:08:27.673Z,40.55
2023-02-23T12:11:20.692Z,30.75
2023-02-23T12:14:26.576Z,22.55
2023-02-23T12:17:25.847Z,21.90
2023-02-23T12:20:16.390Z,20.10
2023-02-23T12:23:13.944Z,23.88
2023-02-23T12:26:13.913Z,22.70
2023-02-23T12:29:04.719Z,24.75
2023-02-23T12:32:05.787Z,25.42
2023-02-23T12:34:59.361Z,22.88
2023-02-23T12:37:50.247Z,19.55
2023-02-23T12:40:38.619Z,21.88
2023-02-23T12:43:36.333Z,25.45
2023-02-23T12:46:25.699Z,28.10
2023-02-23T12:49:19.630Z,24.13
2023-02-23T12:52:17.546Z,28.67
2023-02-23T12:55:04.168Z,23.67
2023-02-23T12:58:06.919Z,35.13
2023-02-23T13:01:04.475Z,25.08
2023-02-23T13:04:02.797Z,24.15
2023-02-23T13:07:00.651Z,25.63
2023-02-23T13:10:24.223Z,25.10
2023-02-23T13:16:17.603Z,31.00
2023-02-23T13:19:09.338Z,31.05
2023-02-23T13:22:06.828Z,25.02
2023-02-23T13:24:54.456Z,29.30
2023-02-23T13:27:47.008Z,19.42
2023-02-23T13:30:33.656Z,22.73
2023-02-23T13:33:43.322Z,26.13
2023-02-23T13:36:32.499Z,22.25
2023-02-23T13:40:12.820Z,28.67
2023-02-23T13:43:38.216Z,33.13
2023-02-23T13:46:46.064Z,31.83
2023-02-23T13:49:39.005Z,30.85
2023-02-23T13:52:45.272Z,31.45
2023-02-23T13:55:48.204Z,22.98
2023-02-23T13:58:35.816Z,54.65
2023-02-23T14:01:23.616Z,36.65
2023-02-23T14:04:15.771Z,29.48
2023-02-23T14:07:16.710Z,36.22
2023-02-23T14:10:30.135Z,27.92
2023-02-23T14:13:16.550Z,26.58
2023-02-23T14:16:20.158Z,37.88
2023-02-23T14:19:34.537Z,32.20
2023-02-23T14:22:22.185Z,33.75
2023-02-23T14:25:33.155Z,24.95
2023-02-23T14:28:27.717Z,21.90
2023-02-23T14:31:14.155Z,26.40
2023-02-23T14:34:02.038Z,26.50
2023-02-23T14:36:49.983Z,34.30
2023-02-23T14:39:36.379Z,29.48
2023-02-23T14:42:27.864Z,31.10
2023-02-23T14:45:20.942Z,29.05
2023-02-23T14:48:13.675Z,25.40
2023-02-23T14:51:17.242Z,38.13
2023-02-23T14:54:11.581Z,31.92
2023-02-23T14:57:00.167Z,20.85
2023-02-23T14:59:56.632Z,24.77
2023-02-23T15:03:00.652Z,24.00
2023-02-23T15:05:57.869Z,37.30
2023-02-23T15:08:46.525Z,31.02
2023-02-23T15:11:32.915Z,27.35
2023-02-23T15:14:27.504Z,38.58
2023-02-23T15:17:17.685Z,36.95
2023-02-23T15:20:15.980Z,30.70
2023-02-23T15:23:05.214Z,30.52
2023-02-23T15:25:52.864Z,28.88
2023-02-23T15:28:40.320Z,39.38
2023-02-23T15:31:30.828Z,46.60
2023-02-23T15:34:21.494Z,36.90
2023-02-23T15:37:23.772Z,39.90
2023-02-23T15:40:17.791Z,31.90
2023-02-23T15:43:03.924Z,33.72
2023-02-23T15:45:52.406Z,38.35
2023-02-23T15:48:46.680Z,47.00
2023-02-23T15:51:32.608Z,41.10
2023-02-23T15:54:20.510Z,35.80
2023-02-23T15:57:08.429Z,40.95
2023-02-23T15:59:58.087Z,48.95
2023-02-23T16:02:45.035Z,47.28
2023-02-23T16:05:46.586Z,55.70
2023-02-23T16:08:34.324Z,54.27
2023-02-23T16:11:22.278Z,57.97
2023-02-23T16:14:15.532Z,70.13
2023-02-23T16:17:10.841Z,69.70
2023-02-23T16:20:18.992Z,58.75
2023-02-23T16:23:06.060Z,63.15
2023-02-23T16:25:55.237Z,69.22
2023-02-23T16:28:43.720Z,61.85
2023-02-23T16:31:49.973Z,63.95
2023-02-23T16:34:48.991Z,66.47
2023-02-23T16:37:50.035Z,62.15
2023-02-23T16:40:35.807Z,68.88
2023-02-23T16:43:21.787Z,69.28
2023-02-23T16:46:08.383Z,59.85
2023-02-23T16:48:54.452Z,71.30
2023-02-23T16:51:40.655Z,81.75
2023-02-23T16:54:27.083Z,78.45
2023-02-23T16:57:24.969Z,80.95
2023-02-23T17:00:14.866Z,75.75
2023-02-23T17:03:01.468Z,81.93
2023-02-23T17:05:48.098Z,94.28
2023-02-23T17:08:35.724Z,83.35
2023-02-23T17:11:23.014Z,78.70
2023-02-23T17:14:11.269Z,79.45
2023-02-23T17:16:57.454Z,91.93
2023-02-23T17:19:45.546Z,98.15
2023-02-23T17:22:33.450Z,86.25
2023-02-23T17:25:19.736Z,99.07
2023-02-23T17:28:05.846Z,88.70
2023-02-23T17:30:51.995Z,85.75
2023-02-23T17:33:39.083Z,92.03
2023-02-23T17:36:27.594Z,87.97
2023-02-23T17:39:16.830Z,80.18
2023-02-23T17:42:02.740Z,87.03
2023-02-23T17:44:48.675Z,90.22
2023-02-23T17:47:36.051Z,69.20
2023-02-23T17:50:22.265Z,56.13
2023-02-23T17:53:08.103Z,29.17
2023-02-23T17:55:57.974Z,30.50
2023-02-23T17:58:45.737Z,28.88
2023-02-23T18:01:31.612Z,33.75
2023-02-23T18:04:17.552Z,29.33
2023-02-23T18:07:03.610Z,35.28
2023-02-23T18:09:50.150Z,25.45
2023-02-23T18:12:36.504Z,23.45
2023-02-23T18:15:22.220Z,27.13
2023-02-23T18:18:08.189Z,23.65
2023-02-23T18:20:56.389Z,65.45
2023-02-23T18:23:42.818Z,76.25
2023-02-23T18:26:28.996Z,85.80
2023-02-23T18:29:15.103Z,116.60
2023-02-23T18:32:03.024Z,113.75
2023-02-23T18:34:49.467Z,107.45
2023-02-23T18:37:35.792Z,95.15
2023-02-23T18:40:23.894Z,94.32
2023-02-23T18:43:11.160Z,90.65
2023-02-23T18:45:57.747Z,89.20
2023-02-23T18:48:44.486Z,90.82
2023-02-23T18:51:30.194Z,81.32
2023-02-23T18:54:19.071Z,84.93
2023-02-23T18:57:06.225Z,73.65
2023-02-23T18:59:52.673Z,75.15
2023-02-23T19:02:38.517Z,78.95
2023-02-23T19:05:24.861Z,76.03
2023-02-23T19:08:13.564Z,67.85
2023-02-23T19:10:59.902Z,84.97
2023-02-23T19:13:46.141Z,67.40
2023-02-23T19:16:33.001Z,107.43
2023-02-23T19:19:18.781Z,123.53
2023-02-23T19:22:04.674Z,136.93
2023-02-23T19:24:50.725Z,132.63
2023-02-23T19:27:36.735Z,160.02
2023-02-23T19:30:22.646Z,142.27
2023-02-23T19:33:08.954Z,141.68
2023-02-23T19:35:54.829Z,129.50
2023-02-23T19:38:42.545Z,139.70
2023-02-23T19:41:28.592Z,105.65
2023-02-23T19:44:14.668Z,98.03
2023-02-23T19:47:00.741Z,98.70
2023-02-23T19:49:46.633Z,131.73
2023-02-23T19:52:32.418Z,109.07
2023-02-23T19:55:20.335Z,125.95
2023-02-23T19:58:06.454Z,110.57
2023-02-23T20:00:53.255Z,109.78
2023-02-23T20:03:46.273Z,103.90
2023-02-23T20:06:36.274Z,84.50
2023-02-23T20:09:22.456Z,78.65
2023-02-23T20:12:09.218Z,80.93
2023-02-23T20:14:55.558Z,87.95
2023-02-23T20:17:41.683Z,80.57
2023-02-23T20:20:29.365Z,94.88
2023-02-23T20:23:15.697Z,102.50
2023-02-23T20:26:10.936Z,105.72
2023-02-23T20:28:57.904Z,116.80
2023-02-23T20:31:52.231Z,123.32
2023-02-23T20:34:39.425Z,132.60
2023-02-23T20:37:25.780Z,123.10
2023-02-23T20:40:18.838Z,96.30
2023-02-23T20:43:05.481Z,84.50
2023-02-23T20:45:51.588Z,86.90
2023-02-23T20:48:37.795Z,82.95
2023-02-23T20:51:23.824Z,93.25
2023-02-23T20:54:11.227Z,92.50
2023-02-23T20:57:07.490Z,92.68
2023-02-23T20:59:53.302Z,91.57
2023-02-23T21:02:40.993Z,84.82
2023-02-23T21:05:29.232Z,80.97
2023-02-23T21:08:15.647Z,72.38
2023-02-23T21:11:05.148Z,67.50
2023-02-23T21:13:52.130Z,67.63
2023-02-23T21:16:41.756Z,75.05
2023-02-23T21:19:27.820Z,77.20
2023-02-23T21:22:16.454Z,90.72
2023-02-23T21:25:02.428Z,107.65
2023-02-23T21:27:49.742Z,97.78
2023-02-23T21:30:35.971Z,101.85
2023-02-23T21:33:22.059Z,112.53
2023-02-23T21:36:18.497Z,121.25
2023-02-23T21:39:10.544Z,120.25
2023-02-23T21:41:58.542Z,106.70
2023-02-23T21:44:45.810Z,116.32
2023-02-23T21:47:40.724Z,86.22
2023-02-23T21:50:26.839Z,66.25
2023-02-23T21:53:13.256Z,66.47
2023-02-23T21:55:59.650Z,69.18
2023-02-23T21:58:50.757Z,69.93
2023-02-23T22:01:38.975Z,64.72
2023-02-23T22:04:24.858Z,63.83
2023-02-23T22:07:10.655Z,76.47
2023-02-23T22:09:56.523Z,71.40
2023-02-23T22:12:42.391Z,82.93
2023-02-23T22:15:28.340Z,84.05
2023-02-23T22:18:14.368Z,96.43
2023-02-23T22:21:01.680Z,86.50
2023-02-23T22:23:48.022Z,85.18
2023-02-23T22:26:36.096Z,85.25
2023-02-23T22:29:23.698Z,83.85
2023-02-23T22:32:10.570Z,63.50
2023-02-23T22:34:56.877Z,51.97
2023-02-23T22:37:42.692Z,50.75
2023-02-23T22:40:28.847Z,49.05
2023-02-23T22:43:16.282Z,51.15
2023-02-23T22:46:02.397Z,50.58
2023-02-23T22:48:48.716Z,59.67
2023-02-23T22:51:34.847Z,59.42
2023-02-23T22:54:24.024Z,68.25
2023-02-23T22:57:10.125Z,71.70
2023-02-23T23:00:00.105Z,63.60
2023-02-23T23:02:46.111Z,66.22
2023-02-23T23:05:32.861Z,58.83
2023-02-23T23:08:18.815Z,72.95
2023-02-23T23:11:09.981Z,70.60
2023-02-23T23:14:02.152Z,68.00
2023-02-23T23:16:49.492Z,73.78
2023-02-23T23:19:39.140Z,89.30
2023-02-23T23:22:25.382Z,84.38
2023-02-23T23:25:14.887Z,67.88
2023-02-23T23:28:00.680Z,59.92
2023-02-23T23:30:47.355Z,58.42
2023-02-23T23:33:34.577Z,58.28
2023-02-23T23:36:23.683Z,56.67
2023-02-23T23:39:12.092Z,62.45
2023-02-23T23:41:58.050Z,59.70
2023-02-23T23:44:45.276Z,60.20
2023-02-23T23:47:31.093Z,54.80
2023-02-23T23:50:17.503Z,60.75
2023-02-23T23:53:04.592Z,62.85
2023-02-23T23:55:50.468Z,59.05
2023-02-23T23:58:37.303Z,56.67
